createdAt,value
2017-04-07T00:00:36.974Z,68.00
2017-04-07T00:01:36.958Z,67.70
2017-04-07T00:02:37.202Z,67.80
2017-04-07T00:03:37.126Z,68.40
2017-04-07T00:04:37.790Z,68.30
2017-04-07T00:05:37.707Z,67.00
2017-04-07T00:06:37.638Z,67.90
2017-04-07T00:07:37.587Z,67.10
2017-04-07T00:08:37.506Z,66.90
2017-04-07T00:09:37.414Z,66.80
2017-04-07T00:12:51.650Z,66.80
2017-04-07T00:13:51.622Z,66.70
2017-04-07T00:14:52.320Z,66.40
2017-04-07T00:15:52.250Z,66.10
2017-04-07T00:16:52.904Z,66.10
2017-04-07T00:17:52.910Z,66.20
2017-04-07T00:18:52.878Z,66.30
2017-04-07T00:20:52.887Z,66.30
2017-04-07T00:21:52.823Z,66.40
2017-04-07T00:22:52.762Z,66.70
2017-04-07T00:23:52.711Z,66.80
2017-04-07T00:24:53.382Z,66.80
2017-04-07T00:25:53.344Z,66.80
2017-04-07T00:26:54.091Z,68.20
2017-04-07T00:27:54.772Z,67.40
2017-04-07T00:28:54.696Z,67.30
2017-04-07T00:29:55.431Z,67.40
2017-04-07T00:30:56.086Z,67.80
2017-04-07T00:31:56.012Z,68.30
2017-04-07T00:32:55.936Z,68.60
2017-04-07T00:33:55.850Z,68.70
2017-04-07T00:34:56.535Z,69.10
2017-04-07T00:35:56.463Z,69.10
2017-04-07T00:36:56.446Z,69.00
2017-04-07T00:37:56.350Z,68.80
2017-04-07T00:38:56.266Z,68.80
2017-04-07T00:39:56.198Z,68.50
2017-04-07T00:40:56.911Z,68.30
2017-04-07T00:41:56.821Z,67.60
2017-04-07T00:42:56.778Z,67.40
2017-04-07T00:43:56.699Z,67.30
2017-04-07T00:44:56.612Z,67.30
2017-04-07T00:45:56.530Z,67.50
2017-04-07T00:46:56.474Z,67.00
2017-04-07T00:47:56.391Z,66.80
2017-04-07T00:48:56.342Z,67.20
2017-04-07T00:49:56.263Z,67.20
2017-04-07T00:51:56.435Z,67.60
2017-04-07T00:52:56.366Z,67.50
2017-04-07T00:53:56.290Z,68.60
2017-04-07T00:54:56.194Z,68.80
2017-04-07T00:56:57.074Z,69.40
2017-04-07T00:57:57.119Z,69.80
2017-04-07T00:58:57.130Z,70.10
2017-04-07T00:59:57.085Z,71.00
2017-04-07T01:00:57.151Z,71.30
2017-04-07T01:01:57.102Z,71.30
2017-04-07T01:02:57.075Z,71.40
2017-04-07T01:03:57.840Z,71.20
2017-04-07T01:04:57.870Z,71.50
2017-04-07T01:05:57.927Z,71.90
2017-04-07T01:06:57.879Z,72.30
2017-04-07T01:07:57.862Z,72.20
2017-04-07T01:08:57.842Z,72.30
2017-04-07T01:09:57.846Z,72.90
2017-04-07T01:10:58.702Z,72.80
2017-04-07T01:11:58.731Z,72.90
2017-04-07T01:12:58.718Z,73.10
2017-04-07T01:13:58.719Z,73.30
2017-04-07T01:14:58.670Z,73.30
2017-04-07T01:15:58.810Z,73.40
2017-04-07T01:16:59.519Z,73.20
2017-04-07T01:18:00.359Z,74.40
2017-04-07T01:19:01.070Z,73.90
2017-04-07T01:20:01.824Z,73.90
2017-04-07T01:21:01.844Z,74.20
2017-04-07T01:22:01.922Z,74.40
2017-04-07T01:23:02.638Z,74.70
2017-04-07T01:24:03.316Z,74.70
2017-04-07T01:25:03.283Z,74.70
2017-04-07T01:26:03.305Z,74.90
2017-04-07T01:27:03.258Z,74.70
2017-04-07T01:29:03.504Z,74.80
2017-04-07T01:30:04.229Z,74.80
2017-04-07T01:31:04.994Z,74.80
2017-04-07T01:32:05.063Z,74.90
2017-04-07T01:33:05.750Z,75.00
2017-04-07T01:34:05.687Z,75.00
2017-04-07T01:35:06.517Z,75.20
2017-04-07T01:36:07.262Z,75.00
2017-04-07T01:37:07.226Z,74.60
2017-04-07T01:38:08.028Z,74.60
2017-04-07T01:39:07.998Z,74.40
2017-04-07T01:40:07.975Z,74.40
2017-04-07T01:41:08.767Z,74.80
2017-04-07T01:43:09.654Z,72.90
2017-04-07T01:44:09.673Z,72.70
2017-04-07T01:45:09.618Z,73.10
2017-04-07T01:46:09.586Z,72.90
2017-04-07T01:47:09.623Z,73.70
2017-04-07T01:48:09.630Z,72.80
2017-04-07T01:49:09.602Z,72.70
2017-04-07T01:50:09.577Z,72.80
2017-04-07T01:51:10.379Z,72.70
2017-04-07T01:52:10.389Z,72.70
2017-04-07T01:54:10.524Z,72.60
2017-04-07T01:55:11.296Z,72.60
2017-04-07T01:56:11.367Z,72.60
2017-04-07T01:57:12.074Z,72.70
2017-04-07T01:58:12.786Z,72.60
2017-04-07T01:59:12.775Z,72.50
2017-04-07T02:00:12.715Z,72.80
2017-04-07T02:01:13.445Z,72.50
2017-04-07T02:02:14.163Z,72.40
2017-04-07T02:03:14.878Z,72.10
2017-04-07T02:04:15.539Z,72.00
2017-04-07T02:05:15.591Z,72.40
2017-04-07T02:06:15.553Z,72.60
2017-04-07T02:07:15.522Z,72.60
2017-04-07T02:08:16.222Z,72.40
2017-04-07T02:09:16.139Z,72.60
2017-04-07T02:11:36.842Z,72.70
2017-04-07T02:12:37.623Z,72.90
2017-04-07T02:14:11.298Z,73.00
2017-04-07T02:15:11.211Z,73.10
2017-04-07T02:16:11.142Z,73.10
2017-04-07T02:17:11.098Z,73.50
2017-04-07T02:18:11.920Z,73.20
2017-04-07T02:19:12.573Z,73.30
2017-04-07T02:20:12.525Z,73.30
2017-04-07T02:21:12.460Z,73.60
2017-04-07T02:22:12.474Z,73.50
2017-04-07T02:23:12.466Z,73.50
2017-04-07T02:24:13.215Z,73.60
2017-04-07T02:25:13.170Z,73.60
2017-04-07T02:26:13.289Z,73.50
2017-04-07T02:27:14.034Z,74.10
2017-04-07T02:28:13.963Z,73.70
2017-04-07T02:29:13.962Z,73.70
2017-04-07T02:30:13.946Z,73.50
2017-04-07T02:31:14.654Z,73.90
2017-04-07T02:32:15.356Z,74.00
2017-04-07T02:33:15.297Z,73.80
2017-04-07T02:34:15.987Z,74.00
2017-04-07T02:35:15.906Z,73.80
2017-04-07T02:36:16.577Z,74.00
2017-04-07T02:37:16.582Z,74.00
2017-04-07T02:38:16.512Z,74.00
2017-04-07T02:39:16.426Z,74.20
2017-04-07T02:40:16.343Z,74.10
2017-04-07T02:41:16.259Z,74.00
2017-04-07T02:42:16.982Z,74.10
2017-04-07T02:43:17.641Z,74.10
2017-04-07T02:44:17.606Z,74.40
2017-04-07T02:45:18.277Z,74.50
2017-04-07T02:46:18.222Z,74.70
2017-04-07T02:47:18.167Z,74.70
2017-04-07T02:48:18.079Z,74.80
2017-04-07T02:49:18.022Z,75.40
2017-04-07T02:50:17.952Z,74.80
2017-04-07T02:51:18.693Z,75.20
2017-04-07T02:52:19.425Z,75.10
2017-04-07T02:53:19.342Z,75.30
2017-04-07T02:54:19.283Z,75.30
2017-04-07T02:55:19.219Z,75.50
2017-04-07T02:56:19.859Z,75.30
2017-04-07T02:57:19.825Z,74.60
2017-04-07T02:58:19.748Z,75.20
2017-04-07T02:59:20.423Z,75.80
2017-04-07T03:00:20.347Z,75.40
2017-04-07T03:01:20.522Z,75.30
2017-04-07T03:02:20.501Z,75.10
2017-04-07T03:03:21.150Z,75.10
2017-04-07T03:04:21.734Z,75.00
2017-04-07T03:05:22.440Z,75.00
2017-04-07T03:07:22.545Z,75.00
2017-04-07T03:08:22.503Z,75.00
2017-04-07T03:09:22.448Z,75.50
2017-04-07T03:10:22.426Z,74.90
2017-04-07T03:11:22.343Z,74.80
2017-04-07T03:12:22.363Z,74.60
2017-04-07T03:13:22.286Z,74.50
2017-04-07T03:14:22.207Z,74.50
2017-04-07T03:15:22.868Z,74.50
2017-04-07T03:16:22.781Z,74.90
2017-04-07T03:17:22.723Z,74.50
2017-04-07T03:18:22.660Z,74.70
2017-04-07T03:19:23.322Z,74.90
2017-04-07T03:20:23.271Z,75.00
2017-04-07T03:21:23.938Z,75.00
2017-04-07T03:22:23.884Z,75.00
2017-04-07T03:23:23.826Z,74.90
2017-04-07T03:24:24.511Z,75.00
2017-04-07T03:25:24.535Z,75.20
2017-04-07T03:26:25.192Z,75.00
2017-04-07T03:27:25.137Z,74.80
2017-04-07T03:28:25.069Z,75.10
2017-04-07T03:29:25.742Z,75.00
2017-04-07T03:30:25.670Z,75.10
2017-04-07T03:31:25.614Z,75.00
2017-04-07T03:32:26.298Z,75.00
2017-04-07T03:33:26.242Z,75.00
2017-04-07T03:34:26.928Z,75.00
2017-04-07T03:35:26.872Z,75.00
2017-04-07T03:36:27.570Z,74.80
2017-04-07T03:37:27.530Z,74.70
2017-04-07T03:38:27.512Z,74.70
2017-04-07T03:39:28.191Z,74.70
2017-04-07T03:40:28.138Z,74.50
2017-04-07T03:41:28.854Z,74.90
2017-04-07T03:42:30.170Z,75.00
2017-04-07T03:44:30.309Z,75.30
2017-04-07T03:45:30.993Z,75.30
2017-04-07T03:46:30.970Z,75.60
2017-04-07T03:47:30.975Z,75.60
2017-04-07T03:48:30.938Z,76.00
2017-04-07T03:49:31.743Z,76.00
2017-04-07T03:50:31.702Z,76.10
2017-04-07T03:51:31.622Z,76.10
2017-04-07T03:52:31.585Z,76.40
2017-04-07T03:53:32.322Z,76.20
2017-04-07T03:54:32.258Z,76.40
2017-04-07T03:55:32.186Z,76.70
2017-04-07T03:57:32.281Z,76.40
2017-04-07T03:58:32.269Z,76.70
2017-04-07T03:59:32.227Z,76.60
2017-04-07T04:00:32.176Z,76.70
2017-04-07T04:01:32.110Z,76.40
2017-04-07T04:02:32.041Z,76.40
2017-04-07T04:04:32.341Z,76.40
2017-04-07T04:05:32.265Z,76.50
2017-04-07T04:06:32.226Z,77.00
2017-04-07T04:07:32.171Z,76.70
2017-04-07T04:08:32.395Z,76.90
2017-04-07T04:09:33.094Z,76.50
2017-04-07T04:10:33.030Z,76.40
2017-04-07T04:11:34.910Z,76.70
2017-04-07T04:12:44.167Z,75.40
2017-04-07T04:13:53.149Z,76.40
2017-04-07T04:14:53.069Z,77.00
2017-04-07T04:15:53.043Z,76.90
2017-04-07T04:16:53.746Z,77.40
2017-04-07T04:17:54.429Z,77.30
2017-04-07T04:18:54.398Z,77.30
2017-04-07T04:19:54.371Z,76.80
2017-04-07T04:20:54.326Z,76.90
2017-04-07T04:21:54.372Z,77.00
2017-04-07T04:22:54.315Z,76.90
2017-04-07T04:23:55.045Z,76.90
2017-04-07T04:24:55.001Z,77.10
2017-04-07T04:25:54.939Z,77.20
2017-04-07T04:26:55.626Z,77.10
2017-04-07T04:27:55.580Z,77.50
2017-04-07T04:28:56.290Z,77.20
2017-04-07T04:29:57.082Z,77.20
2017-04-07T04:30:57.023Z,77.30
2017-04-07T04:31:57.747Z,77.20
2017-04-07T04:32:58.430Z,77.20
2017-04-07T04:33:58.410Z,77.60
2017-04-07T04:34:58.366Z,77.40
2017-04-07T04:35:58.326Z,77.90
2017-04-07T04:36:58.322Z,77.90
2017-04-07T04:37:58.277Z,77.90
2017-04-07T04:38:58.237Z,78.10
2017-04-07T04:39:58.184Z,77.70
2017-04-07T04:40:58.137Z,77.80
2017-04-07T04:41:58.097Z,77.80
2017-04-07T04:42:58.038Z,78.10
2017-04-07T04:43:58.788Z,77.80
2017-04-07T04:44:58.722Z,77.90
2017-04-07T04:45:58.773Z,78.20
2017-04-07T04:46:59.447Z,78.10
2017-04-07T04:47:59.385Z,78.00
2017-04-07T04:49:00.835Z,77.50
2017-04-07T04:50:01.548Z,77.30
2017-04-07T04:51:02.252Z,77.40
2017-04-07T04:52:02.223Z,77.80
2017-04-07T04:53:02.158Z,77.60
2017-04-07T04:54:02.113Z,77.30
2017-04-07T04:55:02.086Z,77.50
2017-04-07T04:56:02.176Z,76.90
2017-04-07T04:57:02.152Z,77.30
2017-04-07T04:58:02.110Z,77.30
2017-04-07T04:59:03.077Z,77.00
2017-04-07T05:00:03.065Z,76.80
2017-04-07T05:01:03.770Z,76.70
2017-04-07T05:02:04.519Z,76.70
2017-04-07T05:03:04.462Z,77.20
2017-04-07T05:04:04.451Z,76.70
2017-04-07T05:05:04.401Z,76.00
2017-04-07T05:06:04.353Z,76.10
2017-04-07T05:07:04.415Z,76.10
2017-04-07T05:08:04.382Z,76.10
2017-04-07T05:09:04.981Z,76.20
2017-04-07T05:10:04.969Z,77.20
2017-04-07T05:12:21.953Z,76.20
2017-04-07T05:13:21.930Z,76.20
2017-04-07T05:14:21.909Z,76.20
2017-04-07T05:15:22.006Z,76.70
2017-04-07T05:16:22.718Z,76.50
2017-04-07T05:17:23.457Z,76.40
2017-04-07T05:18:24.137Z,76.40
2017-04-07T05:19:24.143Z,76.90
2017-04-07T05:20:24.094Z,76.60
2017-04-07T05:21:24.094Z,77.20
2017-04-07T05:22:24.776Z,76.80
2017-04-07T05:23:24.716Z,77.00
2017-04-07T05:24:25.470Z,77.20
2017-04-07T05:25:26.204Z,77.00
2017-04-07T05:26:26.166Z,77.10
2017-04-07T05:27:26.922Z,76.80
2017-04-07T05:28:26.894Z,76.90
2017-04-07T05:29:27.623Z,76.70
2017-04-07T05:30:28.381Z,76.60
2017-04-07T05:31:28.422Z,76.70
2017-04-07T05:32:28.400Z,76.50
2017-04-07T05:33:28.348Z,76.60
2017-04-07T05:35:28.474Z,76.20
2017-04-07T05:37:33.475Z,76.00
2017-04-07T05:39:12.440Z,76.30
2017-04-07T05:40:15.060Z,76.20
2017-04-07T05:41:24.822Z,76.10
2017-04-07T05:42:48.702Z,76.40
2017-04-07T05:43:48.817Z,77.60
2017-04-07T05:44:49.535Z,76.80
2017-04-07T05:45:50.294Z,77.00
2017-04-07T05:46:50.266Z,76.50
2017-04-07T05:48:47.505Z,76.80
2017-04-07T05:49:48.245Z,76.60
2017-04-07T05:50:48.936Z,76.70
2017-04-07T05:51:48.905Z,76.50
2017-04-07T05:52:48.852Z,76.30
2017-04-07T05:54:07.833Z,76.10
2017-04-07T05:55:07.938Z,76.10
2017-04-07T05:56:08.773Z,75.90
2017-04-07T05:57:09.511Z,75.40
2017-04-07T05:58:09.509Z,75.80
2017-04-07T05:59:09.522Z,75.40
2017-04-07T06:00:09.563Z,75.10
2017-04-07T06:01:09.598Z,75.50
2017-04-07T06:02:11.038Z,75.40
2017-04-07T06:03:11.821Z,75.10
2017-04-07T06:04:11.825Z,75.40
2017-04-07T06:05:11.883Z,75.20
2017-04-07T06:06:13.239Z,75.50
2017-04-07T06:07:13.250Z,75.60
2017-04-07T06:08:13.270Z,75.70
2017-04-07T06:09:13.261Z,75.20
2017-04-07T06:10:13.230Z,75.10
2017-04-07T06:11:30.702Z,75.30
2017-04-07T06:14:02.096Z,75.00
2017-04-07T06:15:02.166Z,75.00
2017-04-07T06:16:02.249Z,75.20
2017-04-07T06:17:02.293Z,75.50
2017-04-07T06:18:02.210Z,74.70
2017-04-07T06:19:02.875Z,74.70
2017-04-07T06:20:03.583Z,74.60
2017-04-07T06:21:04.405Z,75.00
2017-04-07T06:22:04.455Z,74.80
2017-04-07T06:23:04.627Z,75.00
2017-04-07T06:24:05.330Z,75.40
2017-04-07T06:25:05.275Z,74.40
2017-04-07T06:26:05.315Z,74.60
2017-04-07T06:27:05.293Z,74.80
2017-04-07T06:28:05.280Z,74.60
2017-04-07T06:29:06.054Z,74.60
2017-04-07T06:30:06.065Z,74.60
2017-04-07T06:31:06.129Z,74.40
2017-04-07T06:32:06.797Z,73.90
2017-04-07T06:33:06.765Z,73.60
2017-04-07T06:34:06.726Z,73.60
2017-04-07T06:35:06.698Z,73.40
2017-04-07T06:36:06.669Z,72.80
2017-04-07T06:37:07.329Z,72.80
2017-04-07T06:38:07.278Z,72.70
2017-04-07T06:39:07.218Z,72.80
2017-04-07T06:40:07.779Z,72.70
2017-04-07T06:41:07.833Z,73.00
2017-04-07T06:42:08.552Z,72.80
2017-04-07T06:43:09.260Z,72.80
2017-04-07T06:44:09.208Z,72.60
2017-04-07T06:45:09.167Z,73.00
2017-04-07T06:46:09.147Z,72.80
2017-04-07T06:47:09.081Z,73.50
2017-04-07T06:48:09.778Z,72.80
2017-04-07T06:49:09.833Z,72.70
2017-04-07T06:50:10.509Z,72.90
2017-04-07T06:51:10.582Z,72.60
2017-04-07T06:52:10.533Z,72.30
2017-04-07T06:53:11.297Z,72.10
2017-04-07T06:54:11.226Z,71.80
2017-04-07T06:55:11.907Z,71.80
2017-04-07T06:56:12.624Z,71.90
2017-04-07T06:58:12.770Z,71.40
2017-04-07T06:59:12.718Z,72.10
2017-04-07T07:00:12.678Z,71.50
2017-04-07T07:01:12.646Z,70.80
2017-04-07T07:02:12.670Z,71.10
2017-04-07T07:03:13.410Z,71.90
2017-04-07T07:04:14.081Z,72.50
2017-04-07T07:05:14.046Z,71.90
2017-04-07T07:06:14.007Z,71.40
2017-04-07T07:07:13.986Z,71.60
2017-04-07T07:08:13.957Z,71.30
2017-04-07T07:09:13.915Z,71.30
2017-04-07T07:10:13.930Z,71.30
2017-04-07T07:11:13.885Z,71.20
2017-04-07T07:12:13.846Z,71.10
2017-04-07T07:13:13.834Z,71.20
2017-04-07T07:14:13.798Z,70.90
2017-04-07T07:15:13.813Z,71.20
2017-04-07T07:16:14.498Z,70.80
2017-04-07T07:17:15.223Z,71.00
2017-04-07T07:18:15.926Z,70.70
2017-04-07T07:19:15.885Z,70.90
2017-04-07T07:20:15.838Z,70.90
2017-04-07T07:21:15.827Z,70.30
2017-04-07T07:22:15.850Z,70.80
2017-04-07T07:23:15.815Z,70.70
2017-04-07T07:24:15.782Z,70.00
2017-04-07T07:25:15.874Z,70.10
2017-04-07T07:26:15.894Z,70.30
2017-04-07T07:27:15.901Z,70.50
2017-04-07T07:28:16.646Z,70.20
2017-04-07T07:29:17.409Z,70.50
2017-04-07T07:30:17.425Z,70.20
2017-04-07T07:31:17.450Z,70.50
2017-04-07T07:32:17.430Z,70.60
2017-04-07T07:33:17.413Z,70.20
2017-04-07T07:34:17.369Z,69.90
2017-04-07T07:35:17.392Z,69.80
2017-04-07T07:36:17.350Z,70.10
2017-04-07T07:37:17.362Z,69.90
2017-04-07T07:38:17.348Z,69.70
2017-04-07T07:39:17.310Z,69.90
2017-04-07T07:40:17.290Z,69.80
2017-04-07T07:41:20.590Z,69.80
2017-04-07T07:42:20.737Z,69.50
2017-04-07T07:43:20.706Z,68.90
2017-04-07T07:44:20.678Z,69.00
2017-04-07T07:45:20.635Z,70.10
2017-04-07T07:46:21.385Z,69.40
2017-04-07T07:47:22.117Z,69.40
2017-04-07T07:48:22.216Z,69.40
2017-04-07T07:49:23.006Z,69.70
2017-04-07T07:51:24.446Z,69.70
2017-04-07T07:52:24.442Z,69.10
2017-04-07T07:53:24.421Z,68.50
2017-04-07T07:54:24.426Z,69.00
2017-04-07T07:55:24.405Z,68.60
2017-04-07T07:56:24.546Z,67.50
2017-04-07T07:57:24.591Z,67.00
2017-04-07T07:58:24.598Z,65.20
2017-04-07T07:59:25.781Z,66.30
2017-04-07T08:00:25.790Z,64.90
2017-04-07T08:01:25.773Z,66.00
2017-04-07T08:02:26.517Z,65.80
2017-04-07T08:03:26.534Z,66.00
2017-04-07T08:04:26.535Z,64.80
2017-04-07T08:05:26.521Z,65.40
2017-04-07T08:06:27.269Z,65.30
2017-04-07T08:07:27.353Z,64.50
2017-04-07T08:08:28.065Z,65.10
2017-04-07T08:09:28.822Z,63.90
2017-04-07T08:10:40.682Z,63.30
2017-04-07T08:13:02.301Z,63.70
2017-04-07T08:14:03.025Z,63.80
2017-04-07T08:15:03.858Z,64.90
2017-04-07T08:16:03.885Z,63.60
2017-04-07T08:17:03.950Z,64.70
2017-04-07T08:18:03.946Z,64.00
2017-04-07T08:20:04.042Z,63.40
2017-04-07T08:21:04.014Z,63.10
2017-04-07T08:22:04.004Z,62.70
2017-04-07T08:23:04.006Z,62.30
2017-04-07T08:24:04.767Z,62.70
2017-04-07T08:25:04.715Z,62.20
2017-04-07T08:26:05.467Z,62.00
2017-04-07T08:27:05.417Z,61.40
2017-04-07T08:28:05.411Z,61.30
2017-04-07T08:29:05.418Z,61.00
2017-04-07T08:30:05.385Z,61.00
2017-04-07T08:31:06.194Z,60.90
2017-04-07T08:32:06.893Z,61.10
2017-04-07T08:33:06.889Z,61.20
2017-04-07T08:34:06.948Z,61.00
2017-04-07T08:35:07.625Z,61.00
2017-04-07T08:36:07.634Z,60.70
2017-04-07T08:37:07.621Z,60.70
2017-04-07T08:38:07.634Z,60.70
2017-04-07T08:39:07.658Z,60.40
2017-04-07T08:40:07.651Z,59.90
2017-04-07T08:41:07.656Z,60.20
2017-04-07T08:42:07.694Z,59.90
2017-04-07T08:44:07.845Z,59.90
2017-04-07T08:45:07.827Z,59.90
2017-04-07T08:46:08.565Z,60.00
2017-04-07T08:47:08.527Z,60.00
2017-04-07T08:48:08.497Z,59.60
2017-04-07T08:49:08.545Z,60.30
2017-04-07T08:51:08.684Z,59.80
2017-04-07T08:52:09.497Z,59.40
2017-04-07T08:53:09.460Z,59.50
2017-04-07T08:54:09.457Z,59.00
2017-04-07T08:55:09.414Z,58.90
2017-04-07T08:56:09.386Z,59.10
2017-04-07T08:57:09.367Z,58.80
2017-04-07T08:58:09.330Z,58.80
2017-04-07T09:00:10.375Z,58.30
2017-04-07T09:01:11.120Z,58.00
2017-04-07T09:02:11.063Z,57.90
2017-04-07T09:03:11.077Z,57.70
2017-04-07T09:04:11.098Z,57.80
2017-04-07T09:05:11.060Z,57.70
2017-04-07T09:06:10.999Z,57.60
2017-04-07T09:07:10.977Z,58.00
2017-04-07T09:08:11.589Z,57.90
2017-04-07T09:09:11.624Z,57.90
2017-04-07T09:10:19.363Z,57.90
2017-04-07T09:11:20.606Z,58.00
2017-04-07T09:12:20.621Z,58.20
2017-04-07T09:13:20.670Z,58.60
2017-04-07T09:14:20.724Z,58.60
2017-04-07T09:15:21.418Z,58.50
2017-04-07T09:16:21.642Z,58.30
2017-04-07T09:17:22.402Z,58.00
2017-04-07T09:18:22.421Z,58.10
2017-04-07T09:19:22.421Z,58.20
2017-04-07T09:20:22.737Z,58.00
2017-04-07T09:21:22.714Z,58.00
2017-04-07T09:22:23.486Z,57.30
2017-04-07T09:23:23.454Z,57.20
2017-04-07T09:24:24.157Z,57.00
2017-04-07T09:25:24.882Z,57.10
2017-04-07T09:26:25.713Z,57.40
2017-04-07T09:27:26.434Z,56.80
2017-04-07T09:28:27.193Z,56.60
2017-04-07T09:29:27.185Z,56.50
2017-04-07T09:30:29.086Z,56.50
2017-04-07T09:31:29.059Z,56.00
2017-04-07T09:32:29.068Z,55.80
2017-04-07T09:33:29.025Z,56.00
2017-04-07T09:34:29.754Z,56.00
2017-04-07T09:35:30.462Z,55.60
2017-04-07T09:36:30.402Z,56.00
2017-04-07T09:37:30.330Z,56.10
2017-04-07T09:38:30.322Z,56.30
2017-04-07T09:39:30.414Z,56.00
2017-04-07T09:40:30.394Z,56.30
2017-04-07T09:43:31.654Z,56.50
2017-04-07T09:44:32.430Z,57.00
2017-04-07T09:45:32.409Z,56.50
2017-04-07T09:46:32.374Z,56.50
2017-04-07T09:47:32.611Z,56.40
2017-04-07T09:48:33.314Z,56.40
2017-04-07T09:49:33.289Z,56.70
2017-04-07T09:50:33.341Z,56.60
2017-04-07T09:51:34.110Z,57.20
2017-04-07T09:52:34.129Z,56.80
2017-04-07T09:53:34.198Z,56.70
2017-04-07T09:54:34.970Z,56.50
2017-04-07T09:55:34.938Z,56.50
2017-04-07T09:56:34.950Z,57.20
2017-04-07T09:57:35.011Z,56.80
2017-04-07T09:58:34.961Z,57.00
2017-04-07T09:59:34.951Z,57.10
2017-04-07T10:00:35.685Z,57.20
2017-04-07T10:01:35.681Z,57.30
2017-04-07T10:02:36.422Z,57.50
2017-04-07T10:03:36.387Z,57.50
2017-04-07T10:04:36.370Z,57.50
2017-04-07T10:05:36.396Z,57.70
2017-04-07T10:06:36.636Z,57.50
2017-04-07T10:07:37.387Z,57.30
2017-04-07T10:08:37.365Z,57.40
2017-04-07T10:09:38.123Z,56.90
2017-04-07T10:10:38.168Z,57.30
2017-04-07T10:12:38.249Z,56.90
2017-04-07T10:13:38.282Z,56.70
2017-04-07T10:14:38.282Z,56.50
2017-04-07T10:15:38.260Z,56.40
2017-04-07T10:16:38.307Z,56.00
2017-04-07T10:17:38.298Z,55.90
2017-04-07T10:18:38.306Z,55.80
2017-04-07T10:19:38.594Z,55.80
2017-04-07T10:20:38.590Z,56.00
2017-04-07T10:21:38.621Z,56.00
2017-04-07T10:22:38.641Z,56.00
2017-04-07T10:23:38.625Z,56.20
2017-04-07T10:24:38.694Z,56.30
2017-04-07T10:25:39.433Z,56.00
2017-04-07T10:26:39.411Z,56.10
2017-04-07T10:27:39.377Z,56.00
2017-04-07T10:28:39.458Z,56.00
2017-04-07T10:29:40.141Z,55.80
2017-04-07T10:30:40.149Z,55.60
2017-04-07T10:31:40.118Z,55.50
2017-04-07T10:32:40.198Z,55.20
2017-04-07T10:33:40.201Z,55.60
2017-04-07T10:34:40.918Z,55.70
2017-04-07T10:35:41.870Z,55.60
2017-04-07T10:36:41.858Z,55.80
2017-04-07T10:37:41.859Z,55.60
2017-04-07T10:38:42.591Z,55.30
2017-04-07T10:39:42.562Z,54.90
2017-04-07T10:40:42.566Z,54.40
2017-04-07T10:41:42.554Z,54.80
2017-04-07T10:42:42.621Z,54.60
2017-04-07T10:43:42.573Z,54.00
2017-04-07T10:44:42.554Z,54.00
2017-04-07T10:45:42.531Z,53.60
2017-04-07T10:46:43.284Z,53.70
2017-04-07T10:47:43.257Z,53.50
2017-04-07T10:48:43.228Z,53.50
2017-04-07T10:49:43.193Z,53.60
2017-04-07T10:50:43.233Z,53.30
2017-04-07T10:51:43.294Z,53.40
2017-04-07T10:52:44.022Z,53.00
2017-04-07T10:53:43.973Z,52.80
2017-04-07T10:54:44.028Z,52.60
2017-04-07T10:55:44.786Z,52.10
2017-04-07T10:56:44.838Z,51.60
2017-04-07T10:57:45.569Z,51.30
2017-04-07T10:58:45.574Z,51.40
2017-04-07T10:59:46.298Z,51.20
2017-04-07T11:00:47.055Z,51.40
2017-04-07T11:01:47.030Z,51.60
2017-04-07T11:02:47.774Z,51.30
2017-04-07T11:03:47.861Z,51.80
2017-04-07T11:04:48.585Z,51.40
2017-04-07T11:05:49.342Z,51.20
2017-04-07T11:06:49.394Z,51.40
2017-04-07T11:07:49.357Z,51.30
2017-04-07T11:08:49.317Z,51.50
2017-04-07T11:09:50.066Z,51.40
2017-04-07T11:10:50.894Z,51.50
2017-04-07T11:11:51.789Z,51.30
2017-04-07T11:12:52.481Z,51.50
2017-04-07T11:13:52.433Z,51.70
2017-04-07T11:14:52.389Z,51.90
2017-04-07T11:15:52.459Z,51.80
2017-04-07T11:16:53.175Z,52.00
2017-04-07T11:17:53.878Z,51.60
2017-04-07T11:18:53.850Z,51.40
2017-04-07T11:19:54.825Z,51.20
2017-04-07T11:20:55.605Z,51.40
2017-04-07T11:21:55.594Z,51.30
2017-04-07T11:22:55.549Z,51.10
2017-04-07T11:23:55.494Z,51.00
2017-04-07T11:24:55.462Z,50.50
2017-04-07T11:25:55.446Z,50.50
2017-04-07T11:26:55.429Z,50.70
2017-04-07T11:27:55.393Z,50.60
2017-04-07T11:28:56.128Z,50.50
2017-04-07T11:29:56.821Z,51.00
2017-04-07T11:31:56.942Z,50.70
2017-04-07T11:32:57.703Z,50.20
2017-04-07T11:33:57.674Z,49.70
2017-04-07T11:34:58.376Z,49.80
2017-04-07T11:35:58.358Z,49.10
2017-04-07T11:36:58.421Z,48.50
2017-04-07T11:37:59.141Z,47.70
2017-04-07T11:38:59.874Z,47.90
2017-04-07T11:40:00.589Z,47.10
2017-04-07T11:41:01.329Z,47.30
2017-04-07T11:42:01.315Z,47.20
2017-04-07T11:44:01.558Z,46.80
2017-04-07T11:45:02.313Z,46.50
2017-04-07T11:46:02.406Z,46.10
2017-04-07T11:47:02.386Z,45.50
2017-04-07T11:48:03.115Z,45.90
2017-04-07T11:49:03.943Z,46.30
2017-04-07T11:50:04.649Z,46.90
2017-04-07T11:51:05.424Z,47.10
2017-04-07T11:52:05.530Z,47.40
2017-04-07T11:53:05.595Z,47.70
2017-04-07T11:54:06.436Z,48.30
2017-04-07T11:55:07.186Z,48.40
2017-04-07T11:56:07.373Z,48.50
2017-04-07T11:57:08.082Z,48.70
2017-04-07T11:58:08.789Z,49.00
2017-04-07T11:59:09.486Z,49.40
2017-04-07T12:00:09.430Z,49.40
2017-04-07T12:01:10.192Z,49.50
2017-04-07T12:02:10.142Z,49.70
2017-04-07T12:03:10.185Z,49.60
2017-04-07T12:04:10.875Z,49.80
2017-04-07T12:05:10.882Z,50.10
2017-04-07T12:06:11.658Z,50.40
2017-04-07T12:07:11.606Z,50.60
2017-04-07T12:08:11.574Z,50.70
2017-04-07T12:09:11.870Z,51.10
2017-04-07T12:10:11.846Z,50.90
2017-04-07T12:11:35.197Z,50.90
2017-04-07T12:12:35.818Z,50.90
2017-04-07T12:13:36.548Z,51.20
2017-04-07T12:14:37.244Z,51.30
2017-04-07T12:15:37.296Z,51.30
2017-04-07T12:16:37.258Z,51.30
2017-04-07T12:17:37.227Z,51.50
2017-04-07T12:18:37.293Z,51.10
2017-04-07T12:19:37.993Z,51.30
2017-04-07T12:20:38.010Z,51.10
2017-04-07T12:21:37.974Z,51.40
2017-04-07T12:22:37.923Z,51.10
2017-04-07T12:23:37.895Z,51.30
2017-04-07T12:24:37.846Z,51.20
2017-04-07T12:25:38.561Z,51.50
2017-04-07T12:26:39.291Z,51.50
2017-04-07T12:28:40.211Z,51.60
2017-04-07T12:29:40.256Z,51.40
2017-04-07T12:30:40.961Z,51.20
2017-04-07T12:31:41.692Z,51.20
2017-04-07T12:32:42.383Z,51.30
2017-04-07T12:33:42.379Z,51.60
2017-04-07T12:34:43.952Z,51.30
2017-04-07T12:35:45.918Z,50.80
2017-04-07T12:36:46.669Z,51.40
2017-04-07T12:37:49.582Z,51.60
2017-04-07T12:38:49.534Z,51.90
2017-04-07T12:39:50.261Z,51.80
2017-04-07T12:40:50.306Z,52.00
2017-04-07T12:41:50.359Z,51.90
2017-04-07T12:42:51.049Z,52.00
2017-04-07T12:43:50.990Z,51.70
2017-04-07T12:44:51.682Z,51.30
2017-04-07T12:45:51.646Z,51.20
2017-04-07T12:46:51.607Z,51.10
2017-04-07T12:48:51.759Z,51.20
2017-04-07T12:49:51.737Z,51.30
2017-04-07T12:50:52.458Z,50.80
2017-04-07T12:51:53.208Z,50.50
2017-04-07T12:52:53.230Z,50.10
2017-04-07T12:53:53.170Z,49.40
2017-04-07T12:54:53.126Z,49.40
2017-04-07T12:55:53.885Z,49.20
2017-04-07T12:56:53.889Z,49.50
2017-04-07T12:57:54.009Z,49.30
2017-04-07T12:58:54.045Z,49.50
2017-04-07T12:59:54.848Z,49.50
2017-04-07T13:01:55.083Z,50.50
2017-04-07T13:03:55.885Z,51.20
2017-04-07T13:04:55.854Z,51.60
2017-04-07T13:05:56.551Z,52.00
2017-04-07T13:06:57.318Z,52.10
2017-04-07T13:07:57.310Z,52.10
2017-04-07T13:08:57.298Z,51.80
2017-04-07T13:09:58.027Z,51.80
2017-04-07T13:10:59.806Z,51.30
2017-04-07T13:12:11.401Z,50.70
2017-04-07T13:16:06.785Z,50.80
2017-04-07T13:17:06.790Z,50.40
2017-04-07T13:18:06.851Z,50.60
2017-04-07T13:19:06.882Z,50.40
2017-04-07T13:20:08.287Z,50.70
2017-04-07T13:21:08.272Z,50.70
2017-04-07T13:22:08.446Z,50.40
2017-04-07T13:23:09.160Z,50.40
2017-04-07T13:24:09.883Z,50.50
2017-04-07T13:26:10.793Z,50.70
2017-04-07T13:27:10.774Z,51.30
2017-04-07T13:28:10.731Z,51.50
2017-04-07T13:29:11.445Z,51.70
2017-04-07T13:31:11.723Z,51.30
2017-04-07T13:32:11.695Z,51.30
2017-04-07T13:33:11.710Z,51.20
2017-04-07T13:34:12.445Z,51.50
2017-04-07T13:35:12.433Z,51.70
2017-04-07T13:36:12.421Z,51.60
2017-04-07T13:37:13.269Z,51.60
2017-04-07T13:38:13.970Z,51.10
2017-04-07T13:39:14.744Z,51.00
2017-04-07T13:40:14.765Z,50.80